createdAt,value
2019-01-04T00:01:22.603Z,39.93
2019-01-04T00:06:28.088Z,31.17
2019-01-04T00:11:33.809Z,31.37
2019-01-04T00:16:39.944Z,39.87
2019-01-04T00:21:48.344Z,29.33
2019-01-04T00:26:55.721Z,33.30
2019-01-04T00:32:01.007Z,32.57
2019-01-04T00:37:06.500Z,35.10
2019-01-04T00:42:11.861Z,29.70
2019-01-04T00:47:18.314Z,35.47
2019-01-04T00:52:23.084Z,33.83
2019-01-04T00:58:17.347Z,40.50
2019-01-04T01:04:01.347Z,37.47
2019-01-04T01:09:46.017Z,33.23
2019-01-04T01:15:40.390Z,34.40
2019-01-04T01:21:46.403Z,34.70
2019-01-04T01:27:58.884Z,30.57
2019-01-04T01:33:58.227Z,34.23
2019-01-04T01:39:42.001Z,37.37
2019-01-04T01:45:23.281Z,34.60
2019-01-04T01:50:55.734Z,33.33
2019-01-04T01:56:00.282Z,36.57
2019-01-04T02:01:04.853Z,32.90
2019-01-04T02:06:11.640Z,34.43
2019-01-04T02:11:16.681Z,30.87
2019-01-04T02:16:22.024Z,30.47
2019-01-04T02:21:27.496Z,37.53
2019-01-04T02:26:32.374Z,35.27
2019-01-04T02:31:36.627Z,41.40
2019-01-04T02:36:41.971Z,41.17
2019-01-04T02:41:47.843Z,39.77
2019-01-04T02:46:52.394Z,36.43
2019-01-04T02:51:58.297Z,35.37
2019-01-04T02:57:03.231Z,30.20
2019-01-04T03:02:09.938Z,34.40
2019-01-04T03:07:15.669Z,35.83
2019-01-04T03:12:20.703Z,31.50
2019-01-04T03:17:28.668Z,36.30
2019-01-04T03:22:34.075Z,35.80
2019-01-04T03:27:39.448Z,34.70
2019-01-04T03:32:45.233Z,35.17
2019-01-04T03:37:50.258Z,36.70
2019-01-04T03:42:55.396Z,39.83
2019-01-04T03:48:00.222Z,44.10
2019-01-04T03:53:05.259Z,39.60
2019-01-04T03:58:10.392Z,34.90
2019-01-04T04:03:18.014Z,36.63
2019-01-04T04:08:22.976Z,37.25
2019-01-04T04:13:30.490Z,36.90
2019-01-04T04:18:36.470Z,38.70
2019-01-04T04:23:41.032Z,39.17
2019-01-04T04:28:48.814Z,37.30
2019-01-04T04:33:53.622Z,40.98
2019-01-04T04:38:58.787Z,42.53
2019-01-04T04:44:03.676Z,40.77
2019-01-04T04:49:09.147Z,39.00
2019-01-04T04:54:15.422Z,41.20
2019-01-04T04:59:20.341Z,41.10
2019-01-04T05:04:25.400Z,32.90
2019-01-04T05:09:33.800Z,27.35
2019-01-04T05:14:38.774Z,35.70
2019-01-04T05:19:44.175Z,34.57
2019-01-04T05:24:49.163Z,32.53
2019-01-04T05:29:56.679Z,31.25
2019-01-04T05:35:01.074Z,25.83
2019-01-04T05:40:06.319Z,27.10
2019-01-04T05:45:11.731Z,35.13
2019-01-04T05:50:16.953Z,28.97
2019-01-04T05:55:22.563Z,30.67
2019-01-04T06:00:27.508Z,28.57
2019-01-04T06:05:32.439Z,28.43
2019-01-04T06:10:37.349Z,34.07
2019-01-04T06:15:43.133Z,32.10
2019-01-04T06:20:49.874Z,29.90
2019-01-04T06:25:57.658Z,41.20
2019-01-04T06:31:04.560Z,34.30
2019-01-04T06:36:09.447Z,33.17
2019-01-04T06:41:13.758Z,35.90
2019-01-04T06:46:19.711Z,33.63
2019-01-04T06:51:27.903Z,33.80
2019-01-04T06:56:33.046Z,32.87
2019-01-04T07:01:43.450Z,31.23
2019-01-04T07:06:50.888Z,31.57
2019-01-04T07:11:58.776Z,28.27
2019-01-04T07:17:04.074Z,36.00
2019-01-04T07:22:09.447Z,35.10
2019-01-04T07:27:18.717Z,38.97
2019-01-04T07:32:24.081Z,34.85
2019-01-04T07:37:33.306Z,33.78
2019-01-04T07:42:39.623Z,29.40
2019-01-04T07:47:51.896Z,32.20
2019-01-04T07:53:11.524Z,27.90
2019-01-04T07:58:17.536Z,26.63
2019-01-04T08:03:29.256Z,28.20
2019-01-04T08:08:34.538Z,26.75
2019-01-04T08:13:44.818Z,28.53
2019-01-04T08:18:53.490Z,27.50
2019-01-04T08:23:58.873Z,26.53
2019-01-04T08:29:05.123Z,24.67
2019-01-04T08:34:10.001Z,21.37
2019-01-04T08:39:15.139Z,29.00
2019-01-04T08:44:23.339Z,28.23
2019-01-04T08:49:29.080Z,29.67
2019-01-04T08:54:34.774Z,26.90
2019-01-04T08:59:40.251Z,24.47
2019-01-04T09:04:46.607Z,23.10
2019-01-04T09:09:51.891Z,20.83
2019-01-04T09:14:58.952Z,21.10
2019-01-04T09:20:04.401Z,21.40
2019-01-04T09:25:13.655Z,24.47
2019-01-04T09:30:20.115Z,21.87
2019-01-04T09:35:25.936Z,15.90
2019-01-04T09:40:32.431Z,21.23
2019-01-04T09:45:37.611Z,20.90
2019-01-04T09:50:43.797Z,17.23
2019-01-04T09:55:49.681Z,23.20
2019-01-04T10:00:56.150Z,19.37
2019-01-04T10:06:04.659Z,16.87
2019-01-04T10:11:13.735Z,17.53
2019-01-04T10:16:19.769Z,18.80
2019-01-04T10:21:24.417Z,18.43
2019-01-04T10:26:30.355Z,18.20
2019-01-04T10:31:37.459Z,18.10
2019-01-04T10:36:45.886Z,25.37
2019-01-04T10:41:51.553Z,18.20
2019-01-04T10:46:56.732Z,19.37
2019-01-04T10:52:01.226Z,19.60
2019-01-04T10:57:05.902Z,18.40
2019-01-04T11:02:11.115Z,15.80
2019-01-04T11:07:15.689Z,15.50
2019-01-04T11:12:20.973Z,15.40
2019-01-04T11:17:25.745Z,16.43
2019-01-04T11:23:02.740Z,16.12
2019-01-04T11:28:22.783Z,20.20
2019-01-04T11:33:59.640Z,17.48
2019-01-04T11:39:54.907Z,14.83
2019-01-04T11:45:19.229Z,19.13
2019-01-04T11:50:59.329Z,20.37
2019-01-04T11:56:04.230Z,17.17
2019-01-04T12:01:10.077Z,18.10
2019-01-04T12:06:17.169Z,19.20
2019-01-04T12:11:23.846Z,18.95
2019-01-04T12:16:31.655Z,16.50
2019-01-04T12:21:38.981Z,19.07
2019-01-04T12:26:44.200Z,17.97
2019-01-04T12:31:49.246Z,19.93
2019-01-04T12:36:56.929Z,16.30
2019-01-04T12:42:02.868Z,18.10
2019-01-04T12:47:08.050Z,16.00
2019-01-04T12:52:14.515Z,13.80
2019-01-04T12:57:19.869Z,13.67
2019-01-04T13:02:26.266Z,12.50
2019-01-04T13:07:31.124Z,14.63
2019-01-04T13:12:35.690Z,17.20
2019-01-04T13:17:42.355Z,19.20
2019-01-04T13:22:51.651Z,15.97
2019-01-04T13:27:57.258Z,17.70
2019-01-04T13:33:05.675Z,20.17
2019-01-04T13:38:12.052Z,15.70
2019-01-04T13:43:22.037Z,14.50
2019-01-04T13:48:27.896Z,15.77
2019-01-04T13:53:33.092Z,16.93
2019-01-04T13:58:39.613Z,16.87
2019-01-04T14:03:51.597Z,16.70
2019-01-04T14:08:57.214Z,15.53
2019-01-04T14:14:06.228Z,14.80
2019-01-04T14:19:12.558Z,15.63
2019-01-04T14:24:19.651Z,17.03
2019-01-04T14:29:25.684Z,15.67
2019-01-04T14:34:33.182Z,11.97
2019-01-04T14:39:41.304Z,14.83
2019-01-04T14:44:47.418Z,19.40
2019-01-04T14:49:52.643Z,12.53
2019-01-04T14:54:58.098Z,12.43
2019-01-04T15:00:06.577Z,14.13
2019-01-04T15:05:14.032Z,10.83
2019-01-04T15:10:20.954Z,10.30
2019-01-04T15:15:26.601Z,11.90
2019-01-04T15:20:33.339Z,9.63
2019-01-04T15:25:41.730Z,11.70
2019-01-04T15:30:48.057Z,10.07
2019-01-04T15:35:53.652Z,12.00
2019-01-04T15:41:03.421Z,16.67
2019-01-04T15:46:09.036Z,16.47
2019-01-04T15:51:15.036Z,28.43
2019-01-04T15:56:25.025Z,16.87
2019-01-04T16:01:30.694Z,20.80
2019-01-04T16:06:37.671Z,16.93
2019-01-04T16:11:44.374Z,17.83
2019-01-04T16:16:50.215Z,15.63
2019-01-04T16:21:59.987Z,13.77
2019-01-04T16:27:08.315Z,15.85
2019-01-04T16:32:17.412Z,12.80
2019-01-04T16:37:23.558Z,14.43
2019-01-04T16:42:51.267Z,14.93
2019-01-04T16:47:59.141Z,10.60
2019-01-04T16:53:12.019Z,18.63
2019-01-04T16:58:24.969Z,18.50
2019-01-04T17:03:33.145Z,12.53
2019-01-04T17:08:39.115Z,18.80
2019-01-04T17:13:49.370Z,20.10
2019-01-04T17:18:55.385Z,15.47
2019-01-04T17:24:01.493Z,17.10
2019-01-04T17:29:08.408Z,12.20
2019-01-04T17:34:14.357Z,14.35
2019-01-04T17:39:19.976Z,13.03
2019-01-04T17:44:31.786Z,12.50
2019-01-04T17:49:37.353Z,12.90
2019-01-04T17:54:42.369Z,14.90
2019-01-04T17:59:50.669Z,16.70
2019-01-04T18:04:56.733Z,16.90
2019-01-04T18:10:05.205Z,17.23
2019-01-04T18:15:12.007Z,15.67
2019-01-04T18:20:16.639Z,12.17
2019-01-04T18:25:23.090Z,12.80
2019-01-04T18:30:28.658Z,14.50
2019-01-04T18:35:33.019Z,12.43
2019-01-04T18:40:40.576Z,16.83
2019-01-04T18:45:45.202Z,9.23
2019-01-04T18:50:51.895Z,12.40
